Time;durP1;ratioP1;P1;durP2;ratioP2;P2;SDS_P1;SDS_P2;PMS_P1;PMS_P2;Temp;Humidity;BMP_temperature;BMP_pressure;BME280_temperature;BME280_humidity;BME280_pressure;Samples;Min_cycle;Max_cycle;Signal;HPM_P1;HPM_P2
2023/11/07 00:00:22;;;;;;;0.60;0.50;;;;;;;;;;5053303;28;20417;-59
2023/11/07 00:02:53;;;;;;;2.03;0.40;;;;;;;;;;5049227;28;20036;-59
2023/11/07 00:05:22;;;;;;;2.55;0.50;;;;;;;;;;5050082;28;20045;-59
2023/11/07 00:07:49;;;;;;;1.70;0.45;;;;;;;;;;5050781;28;20573;-59
2023/11/07 00:10:15;;;;;;;0.68;0.50;;;;;;;;;;5051502;28;20044;-59
2023/11/07 00:12:41;;;;;;;2.53;0.43;;;;;;;;;;5053557;28;20028;-59
2023/11/07 00:15:08;;;;;;;1.73;0.95;;;;;;;;;;5052679;28;20044;-59
2023/11/07 00:17:34;;;;;;;1.08;0.57;;;;;;;;;;5048156;28;20037;-58
2023/11/07 00:20:00;;;;;;;4.47;1.50;;;;;;;;;;5053483;28;20047;-59
2023/11/07 00:22:27;;;;;;;5.55;1.48;;;;;;;;;;5051660;28;20040;-59
2023/11/07 00:24:53;;;;;;;3.33;1.15;;;;;;;;;;5050182;28;20037;-59
2023/11/07 00:27:19;;;;;;;4.30;1.50;;;;;;;;;;5052514;28;20037;-58
2023/11/07 00:29:46;;;;;;;3.50;1.25;;;;;;;;;;5051666;28;20494;-58
2023/11/07 00:32:13;;;;;;;3.00;1.30;;;;;;;;;;5049086;28;20032;-58
2023/11/07 00:34:40;;;;;;;4.50;1.45;;;;;;;;;;5050276;28;20751;-58
2023/11/07 00:37:06;;;;;;;1.27;0.60;;;;;;;;;;5049293;28;20048;-58
2023/11/07 00:39:32;;;;;;;2.83;0.70;;;;;;;;;;5050188;28;20516;-58
2023/11/07 00:41:58;;;;;;;0.98;0.95;;;;;;;;;;5050993;28;20047;-59
2023/11/07 00:44:24;;;;;;;3.90;0.70;;;;;;;;;;5046751;28;20525;-59
2023/11/07 00:46:50;;;;;;;1.77;1.52;;;;;;;;;;5046979;28;20048;-59
2023/11/07 00:49:17;;;;;;;1.50;1.05;;;;;;;;;;5043016;28;20049;-59
2023/11/07 00:51:44;;;;;;;1.30;0.73;;;;;;;;;;5049629;28;20275;-59
2023/11/07 00:54:11;;;;;;;1.08;0.60;;;;;;;;;;5045725;28;20049;-59
2023/11/07 00:56:37;;;;;;;3.45;0.60;;;;;;;;;;5049998;28;20040;-58
2023/11/07 00:59:03;;;;;;;0.93;0.40;;;;;;;;;;5045655;28;20045;-58
2023/11/07 01:01:31;;;;;;;3.97;0.70;;;;;;;;;;5047158;28;20076;-58
2023/11/07 01:04:00;;;;;;;1.98;0.68;;;;;;;;;;5050239;28;20032;-58
2023/11/07 01:06:27;;;;;;;0.47;0.38;;;;;;;;;;5044340;28;20033;-59
2023/11/07 01:08:53;;;;;;;1.27;0.57;;;;;;;;;;5048729;28;20053;-59
2023/11/07 01:11:19;;;;;;;11.05;4.38;;;;;;;;;;5048405;28;20029;-59
2023/11/07 01:13:45;;;;;;;1.38;0.60;;;;;;;;;;5048606;28;20029;-59
2023/11/07 01:16:11;;;;;;;1.92;0.70;;;;;;;;;;5046501;28;20049;-59
2023/11/07 01:18:38;;;;;;;1.45;0.60;;;;;;;;;;5048852;28;20060;-59
2023/11/07 01:21:04;;;;;;;1.65;0.70;;;;;;;;;;5048263;28;20059;-59
2023/11/07 01:23:38;;;;;;;2.13;0.68;;;;;;;;;;5047119;28;20052;-59
2023/11/07 01:26:05;;;;;;;1.50;0.50;;;;;;;;;;5048241;28;20530;-59
2023/11/07 01:28:31;;;;;;;1.45;0.50;;;;;;;;;;5044947;28;20099;-59
2023/11/07 01:30:57;;;;;;;1.05;0.65;;;;;;;;;;5042944;28;20029;-58
2023/11/07 01:33:23;;;;;;;1.13;0.88;;;;;;;;;;5046915;28;20037;-58
2023/11/07 01:35:49;;;;;;;2.80;0.50;;;;;;;;;;5048742;28;20045;-58
2023/11/07 01:38:15;;;;;;;2.03;0.50;;;;;;;;;;5045214;28;20052;-59
2023/11/07 01:40:41;;;;;;;0.85;0.50;;;;;;;;;;5047329;28;20060;-59
2023/11/07 01:43:15;;;;;;;4.72;0.80;;;;;;;;;;5048299;28;20036;-59
2023/11/07 01:45:42;;;;;;;2.58;0.50;;;;;;;;;;5047834;28;20052;-59
2023/11/07 01:48:11;;;;;;;1.48;0.40;;;;;;;;;;5044006;28;20033;-59
2023/11/07 01:50:37;;;;;;;2.70;0.52;;;;;;;;;;5049374;28;20402;-59
2023/11/07 01:53:04;;;;;;;1.90;0.55;;;;;;;;;;5043886;28;20025;-59
2023/11/07 01:55:32;;;;;;;1.70;0.60;;;;;;;;;;5048011;28;20032;-59
2023/11/07 01:58:02;;;;;;;2.33;0.60;;;;;;;;;;5043223;28;20032;-59
2023/11/07 02:00:29;;;;;;;2.22;0.47;;;;;;;;;;5047473;28;20032;-59
2023/11/07 02:02:58;;;;;;;0.77;0.40;;;;;;;;;;5049199;28;20051;-58
2023/11/07 02:05:25;;;;;;;1.13;0.60;;;;;;;;;;5046932;28;20040;-58
2023/11/07 02:07:51;;;;;;;1.00;0.60;;;;;;;;;;5047469;28;20556;-59
2023/11/07 02:10:19;;;;;;;1.48;0.60;;;;;;;;;;5048537;28;20057;-59
2023/11/07 02:12:46;;;;;;;1.42;1.33;;;;;;;;;;5047317;28;20592;-59
2023/11/07 02:15:23;;;;;;;0.70;0.60;;;;;;;;;;5046389;28;20056;-59
2023/11/07 02:17:49;;;;;;;0.65;0.60;;;;;;;;;;5047421;28;20060;-59
2023/11/07 02:20:17;;;;;;;4.43;1.80;;;;;;;;;;5047562;28;20060;-59
2023/11/07 02:23:03;;;;;;;0.60;0.60;;;;;;;;;;5047278;28;20502;-58
2023/11/07 02:25:30;;;;;;;0.80;0.68;;;;;;;;;;5046188;28;20546;-59
2023/11/07 02:27:56;;;;;;;1.45;0.52;;;;;;;;;;5047869;28;20045;-59
2023/11/07 02:30:22;;;;;;;1.42;0.70;;;;;;;;;;5048197;28;20040;-59
2023/11/07 02:32:48;;;;;;;2.05;0.77;;;;;;;;;;5042412;28;20056;-58
2023/11/07 02:35:14;;;;;;;0.90;0.50;;;;;;;;;;5048216;28;20502;-58
2023/11/07 02:37:41;;;;;;;1.20;0.50;;;;;;;;;;5048110;28;20044;-58
2023/11/07 02:40:11;;;;;;;3.50;0.55;;;;;;;;;;5044746;28;20048;-59
2023/11/07 02:42:37;;;;;;;;;;;;;;;;;;5047081;28;20561;-58
2023/11/07 02:45:03;;;;;;;3.65;0.80;;;;;;;;;;5044529;28;19913;-58
2023/11/07 02:47:30;;;;;;;0.52;0.52;;;;;;;;;;5043880;28;20041;-58
2023/11/07 02:49:56;;;;;;;0.40;0.40;;;;;;;;;;5036498;28;20037;-58
2023/11/07 02:52:22;;;;;;;2.45;0.50;;;;;;;;;;5045078;28;20037;-58
2023/11/07 02:54:48;;;;;;;1.13;0.70;;;;;;;;;;5047277;28;20045;-58
2023/11/07 02:57:14;;;;;;;3.53;1.25;;;;;;;;;;5046315;28;20048;-58
2023/11/07 02:59:44;;;;;;;1.85;0.63;;;;;;;;;;5046570;28;20048;-58
2023/11/07 03:02:10;;;;;;;1.67;0.55;;;;;;;;;;5046265;28;20515;-58
2023/11/07 03:04:36;;;;;;;1.63;0.60;;;;;;;;;;5045526;28;20040;-58
2023/11/07 03:07:02;;;;;;;1.55;0.57;;;;;;;;;;5047626;28;20494;-58
2023/11/07 03:09:28;;;;;;;0.93;0.50;;;;;;;;;;5037233;28;20048;-57
2023/11/07 03:11:54;;;;;;;0.90;0.70;;;;;;;;;;5044078;28;20406;-58
2023/11/07 03:14:21;;;;;;;0.80;0.60;;;;;;;;;;5046846;28;20029;-59
2023/11/07 03:16:47;;;;;;;1.50;0.77;;;;;;;;;;5046647;28;20028;-58
2023/11/07 03:19:13;;;;;;;0.95;0.75;;;;;;;;;;5046367;28;20033;-58
2023/11/07 03:21:39;;;;;;;3.45;0.73;;;;;;;;;;5047480;28;20516;-58
2023/11/07 03:24:09;;;;;;;1.35;0.60;;;;;;;;;;5047501;28;20037;-58
2023/11/07 03:26:35;;;;;;;0.88;0.70;;;;;;;;;;5036359;28;20045;-58
2023/11/07 03:29:01;;;;;;;1.35;0.65;;;;;;;;;;5046395;28;20414;-58
2023/11/07 03:31:28;;;;;;;0.90;0.65;;;;;;;;;;5047209;28;20044;-61
2023/11/07 03:33:54;;;;;;;1.15;0.75;;;;;;;;;;5045560;28;20029;-59
2023/11/07 03:36:20;;;;;;;0.88;0.70;;;;;;;;;;5044617;28;20048;-59
2023/11/07 03:38:46;;;;;;;1.85;0.90;;;;;;;;;;5041483;28;20049;-59
2023/11/07 03:41:13;;;;;;;1.23;0.70;;;;;;;;;;5044711;28;20048;-59
2023/11/07 03:43:39;;;;;;;1.15;0.80;;;;;;;;;;5045269;28;20029;-59
2023/11/07 03:46:06;;;;;;;1.05;0.80;;;;;;;;;;5041022;28;20124;-59
2023/11/07 03:48:32;;;;;;;2.15;0.90;;;;;;;;;;5044725;28;20429;-59
2023/11/07 03:50:59;;;;;;;1.10;1.00;;;;;;;;;;5043216;28;20042;-59
2023/11/07 03:53:25;;;;;;;1.65;1.00;;;;;;;;;;5043170;28;20131;-59
2023/11/07 03:55:52;;;;;;;1.55;1.02;;;;;;;;;;5045381;28;20063;-59
2023/11/07 03:58:18;;;;;;;4.07;1.20;;;;;;;;;;5043198;28;20053;-59
2023/11/07 04:00:45;;;;;;;3.17;1.33;;;;;;;;;;5046675;28;20044;-59
2023/11/07 04:03:11;;;;;;;1.83;1.48;;;;;;;;;;5045602;28;20053;-59
2023/11/07 04:05:37;;;;;;;1.95;1.40;;;;;;;;;;5044363;28;20036;-59
2023/11/07 04:08:03;;;;;;;4.28;1.40;;;;;;;;;;5046340;28;20413;-58
2023/11/07 04:10:30;;;;;;;2.83;1.90;;;;;;;;;;5042684;28;20048;-59
2023/11/07 04:12:56;;;;;;;3.42;1.95;;;;;;;;;;5043588;28;20060;-59
2023/11/07 04:15:23;;;;;;;3.75;1.85;;;;;;;;;;5045502;28;20521;-59
2023/11/07 04:17:50;;;;;;;5.22;2.45;;;;;;;;;;5041291;28;20433;-59
2023/11/07 04:20:17;;;;;;;2.95;2.00;;;;;;;;;;5043152;28;20053;-59
2023/11/07 04:22:43;;;;;;;1.90;1.52;;;;;;;;;;5049437;28;20040;-59
2023/11/07 04:25:10;;;;;;;5.22;1.98;;;;;;;;;;5043332;28;20414;-59
2023/11/07 04:27:37;;;;;;;1.92;1.65;;;;;;;;;;5049356;28;20053;-59
2023/11/07 04:30:07;;;;;;;2.17;1.60;;;;;;;;;;5050430;28;20052;-59
2023/11/07 04:32:34;;;;;;;1.92;1.50;;;;;;;;;;5047902;28;20053;-58
2023/11/07 04:35:01;;;;;;;2.03;1.52;;;;;;;;;;5048768;28;20029;-59
2023/11/07 04:37:27;;;;;;;3.00;1.88;;;;;;;;;;5048580;28;20056;-59
2023/11/07 04:39:53;;;;;;;2.47;1.50;;;;;;;;;;5047965;28;20033;-59
2023/11/07 04:42:20;;;;;;;2.97;1.50;;;;;;;;;;5049295;28;20068;-59
2023/11/07 04:44:46;;;;;;;3.85;2.15;;;;;;;;;;5050730;28;20444;-58
2023/11/07 04:47:12;;;;;;;4.05;2.30;;;;;;;;;;5045464;28;20403;-58
2023/11/07 04:49:39;;;;;;;3.67;2.10;;;;;;;;;;5044670;28;20055;-58
2023/11/07 04:52:06;;;;;;;2.00;1.60;;;;;;;;;;5051161;28;20056;-58
2023/11/07 04:54:32;;;;;;;4.47;1.90;;;;;;;;;;5045832;28;20041;-59
2023/11/07 04:56:58;;;;;;;3.00;1.73;;;;;;;;;;5048402;28;20029;-59
2023/11/07 04:59:24;;;;;;;3.85;1.98;;;;;;;;;;5049322;28;20056;-59
2023/11/07 05:01:52;;;;;;;1.73;1.48;;;;;;;;;;5049002;28;20044;-59
2023/11/07 05:04:19;;;;;;;3.38;1.98;;;;;;;;;;5047945;28;20041;-59
2023/11/07 05:06:46;;;;;;;3.17;2.13;;;;;;;;;;5049558;28;20068;-59
2023/11/07 05:09:13;;;;;;;3.83;1.88;;;;;;;;;;5048655;28;20044;-59
2023/11/07 05:11:40;;;;;;;2.30;1.67;;;;;;;;;;5047652;28;20045;-59
2023/11/07 05:14:10;;;;;;;2.42;1.77;;;;;;;;;;5049740;28;20051;-59
2023/11/07 05:16:37;;;;;;;2.22;1.63;;;;;;;;;;5047390;28;20044;-59
2023/11/07 05:19:09;;;;;;;4.45;2.58;;;;;;;;;;5047633;28;20275;-59
2023/11/07 05:21:36;;;;;;;2.90;2.10;;;;;;;;;;5048462;28;20040;-59
2023/11/07 05:24:06;;;;;;;2.85;2.17;;;;;;;;;;5050087;28;20296;-59
2023/11/07 05:26:32;;;;;;;3.42;1.80;;;;;;;;;;5042718;28;20649;-59
2023/11/07 05:29:00;;;;;;;2.53;1.92;;;;;;;;;;5047625;28;20056;-59
2023/11/07 05:31:26;;;;;;;2.97;2.10;;;;;;;;;;5047474;28;20033;-59
2023/11/07 05:33:52;;;;;;;4.80;2.30;;;;;;;;;;5047479;28;20430;-59
2023/11/07 05:36:18;;;;;;;2.45;2.00;;;;;;;;;;5041899;28;20053;-59
2023/11/07 05:38:45;;;;;;;3.15;2.33;;;;;;;;;;5048738;28;20536;-59
2023/11/07 05:41:11;;;;;;;4.88;2.00;;;;;;;;;;5045562;28;20048;-59
2023/11/07 05:43:39;;;;;;;4.43;2.10;;;;;;;;;;5047914;28;20053;-59
2023/11/07 05:46:05;;;;;;;2.50;1.40;;;;;;;;;;5045970;28;20049;-59
2023/11/07 05:48:32;;;;;;;3.63;1.92;;;;;;;;;;5045982;28;20037;-58
2023/11/07 05:50:58;;;;;;;5.90;2.35;;;;;;;;;;5045765;28;20053;-58
2023/11/07 05:53:24;;;;;;;4.63;2.03;;;;;;;;;;5046782;28;20043;-58
2023/11/07 05:55:50;;;;;;;2.92;1.90;;;;;;;;;;5039970;28;20529;-59
2023/11/07 05:58:17;;;;;;;3.38;1.90;;;;;;;;;;5046193;28;20045;-58
2023/11/07 06:00:46;;;;;;;1.90;1.30;;;;;;;;;;5047308;28;20033;-59
2023/11/07 06:03:15;;;;;;;2.25;1.58;;;;;;;;;;5040616;28;20083;-59
2023/11/07 06:05:41;;;;;;;2.95;1.60;;;;;;;;;;5037731;28;20044;-59
2023/11/07 06:08:08;;;;;;;3.15;2.00;;;;;;;;;;5041800;28;20037;-59
2023/11/07 06:10:34;;;;;;;2.75;1.55;;;;;;;;;;5040791;28;20045;-59
2023/11/07 06:13:04;;;;;;;1.83;1.23;;;;;;;;;;5043102;28;20048;-59
2023/11/07 06:15:31;;;;;;;;;;;;;;;;;;5041106;28;20032;-58
2023/11/07 06:17:58;;;;;;;3.75;2.20;;;;;;;;;;5042906;28;19920;-59
2023/11/07 06:20:24;;;;;;;3.85;2.28;;;;;;;;;;5044040;28;20037;-59
2023/11/07 06:22:53;;;;;;;4.55;1.85;;;;;;;;;;5043866;28;20494;-58
2023/11/07 06:25:20;;;;;;;2.25;1.40;;;;;;;;;;5042860;28;20052;-58
2023/11/07 06:27:49;;;;;;;2.83;1.10;;;;;;;;;;5042350;28;20056;-58
2023/11/07 06:30:16;;;;;;;3.30;1.20;;;;;;;;;;5042782;28;20049;-59
2023/11/07 06:32:42;;;;;;;0.82;0.80;;;;;;;;;;5046620;28;20041;-58
2023/11/07 06:35:08;;;;;;;1.92;1.05;;;;;;;;;;5045085;28;20033;-58
2023/11/07 06:37:35;;;;;;;2.97;1.30;;;;;;;;;;5043823;28;20037;-58
2023/11/07 06:40:17;;;;;;;2.70;1.35;;;;;;;;;;5044562;28;20043;-59
2023/11/07 06:42:44;;;;;;;1.63;1.20;;;;;;;;;;5045417;28;20083;-57
2023/11/07 06:45:13;;;;;;;2.72;1.42;;;;;;;;;;5042672;28;20398;-57
2023/11/07 06:47:43;;;;;;;2.67;1.20;;;;;;;;;;5046774;28;20060;-59
2023/11/07 06:50:10;;;;;;;1.15;1.02;;;;;;;;;;5043035;28;20033;-59
2023/11/07 06:52:40;;;;;;;1.58;1.13;;;;;;;;;;5043596;28;20063;-59
2023/11/07 06:55:09;;;;;;;1.60;1.20;;;;;;;;;;5044580;28;20037;-59
2023/11/07 06:57:35;;;;;;;2.63;1.30;;;;;;;;;;5045412;28;20024;-59
2023/11/07 07:00:05;;;;;;;2.03;1.40;;;;;;;;;;5047651;28;20052;-59
2023/11/07 07:02:35;;;;;;;1.75;1.50;;;;;;;;;;5047266;28;20044;-57
2023/11/07 07:05:03;;;;;;;1.83;1.58;;;;;;;;;;5046721;28;20036;-58
2023/11/07 07:07:30;;;;;;;5.50;2.97;;;;;;;;;;5044347;28;20528;-58
2023/11/07 07:09:58;;;;;;;4.05;1.90;;;;;;;;;;5047225;28;20287;-58
2023/11/07 07:12:24;;;;;;;2.13;1.23;;;;;;;;;;5045823;28;20049;-58
2023/11/07 07:14:50;;;;;;;1.60;1.00;;;;;;;;;;5039967;28;20055;-60
2023/11/07 07:17:19;;;;;;;1.45;0.98;;;;;;;;;;5046804;28;20053;-59
2023/11/07 07:19:48;;;;;;;1.48;1.20;;;;;;;;;;5044812;28;20053;-59
2023/11/07 07:22:14;;;;;;;3.08;1.23;;;;;;;;;;5044063;28;20047;-58
2023/11/07 07:24:40;;;;;;;2.58;1.02;;;;;;;;;;5045141;28;20051;-58
2023/11/07 07:27:11;;;;;;;1.40;1.10;;;;;;;;;;5037747;28;20037;-57
2023/11/07 07:29:37;;;;;;;1.02;0.93;;;;;;;;;;5044421;28;20070;-58
2023/11/07 07:32:04;;;;;;;3.30;1.20;;;;;;;;;;5047234;28;20045;-59
2023/11/07 07:34:32;;;;;;;2.10;1.38;;;;;;;;;;5046312;28;20029;-58
2023/11/07 07:36:58;;;;;;;2.85;1.60;;;;;;;;;;5043160;28;20033;-58
2023/11/07 07:39:31;;;;;;;2.28;1.23;;;;;;;;;;5045034;28;20108;-58
2023/11/07 07:42:00;;;;;;;1.48;1.20;;;;;;;;;;5040130;28;20067;-59
2023/11/07 07:44:27;;;;;;;1.90;1.10;;;;;;;;;;5045117;28;20033;-59
2023/11/07 07:47:00;;;;;;;2.45;1.20;;;;;;;;;;5035947;28;20045;-59
2023/11/07 07:49:26;;;;;;;1.83;1.30;;;;;;;;;;5035249;28;20029;-59
2023/11/07 07:51:54;;;;;;;1.17;0.93;;;;;;;;;;5043261;28;20033;-59
2023/11/07 07:54:22;;;;;;;1.35;1.00;;;;;;;;;;5048099;28;20441;-59
2023/11/07 07:56:49;;;;;;;2.67;1.13;;;;;;;;;;5046120;28;20044;-57
2023/11/07 07:59:16;;;;;;;1.27;1.00;;;;;;;;;;5047635;28;20040;-59
2023/11/07 08:01:42;;;;;;;2.20;1.08;;;;;;;;;;5051443;28;20052;-59
2023/11/07 08:04:08;;;;;;;1.48;1.13;;;;;;;;;;5050782;28;20128;-59
2023/11/07 08:06:35;;;;;;;1.88;1.10;;;;;;;;;;5050522;28;20037;-57
2023/11/07 08:09:02;;;;;;;3.00;1.00;;;;;;;;;;5045819;28;20052;-58
2023/11/07 08:11:29;;;;;;;2.28;0.95;;;;;;;;;;5050559;28;20529;-60
2023/11/07 08:13:57;;;;;;;1.45;0.90;;;;;;;;;;5050446;28;20052;-59
2023/11/07 08:16:23;;;;;;;1.35;0.93;;;;;;;;;;5050468;28;20410;-61
2023/11/07 08:18:49;;;;;;;2.15;0.95;;;;;;;;;;5050491;28;20048;-59
2023/11/07 08:21:15;;;;;;;2.03;1.10;;;;;;;;;;5050717;28;20036;-59
2023/11/07 08:23:41;;;;;;;3.25;0.80;;;;;;;;;;5044369;28;20063;-59
2023/11/07 08:26:07;;;;;;;1.48;0.90;;;;;;;;;;5046153;28;20038;-59
2023/11/07 08:28:34;;;;;;;1.42;0.90;;;;;;;;;;5042338;28;20039;-59
2023/11/07 08:31:00;;;;;;;0.80;0.80;;;;;;;;;;5051242;28;20049;-59
2023/11/07 08:33:27;;;;;;;2.30;1.00;;;;;;;;;;5050284;28;20442;-59
2023/11/07 08:35:53;;;;;;;1.98;1.10;;;;;;;;;;5050298;28;20040;-59
2023/11/07 08:38:19;;;;;;;2.67;1.75;;;;;;;;;;5049693;28;20032;-59
2023/11/07 08:40:45;;;;;;;2.38;1.10;;;;;;;;;;5050444;28;20052;-58
2023/11/07 08:43:12;;;;;;;4.57;0.80;;;;;;;;;;5048473;28;20398;-59
2023/11/07 08:45:39;;;;;;;1.85;0.95;;;;;;;;;;5048782;28;20482;-60
2023/11/07 08:48:06;;;;;;;2.53;1.05;;;;;;;;;;5049922;28;20056;-59
2023/11/07 08:50:32;;;;;;;1.48;0.90;;;;;;;;;;5049197;28;20044;-59
2023/11/07 08:53:04;;;;;;;1.75;0.73;;;;;;;;;;5050109;28;20060;-60
2023/11/07 08:55:31;;;;;;;1.20;0.85;;;;;;;;;;5047885;28;20060;-59
2023/11/07 08:57:58;;;;;;;2.13;0.80;;;;;;;;;;5041906;28;20053;-59
2023/11/07 09:00:27;;;;;;;1.20;0.90;;;;;;;;;;5049052;28;20044;-59
2023/11/07 09:02:53;;;;;;;2.22;0.80;;;;;;;;;;5043836;28;20033;-59
2023/11/07 09:05:20;;;;;;;0.88;0.80;;;;;;;;;;5048005;28;20382;-59
2023/11/07 09:07:46;;;;;;;0.80;0.80;;;;;;;;;;5045588;28;20056;-59
2023/11/07 09:10:13;;;;;;;1.58;0.73;;;;;;;;;;5050505;28;20395;-59
2023/11/07 09:12:41;;;;;;;2.63;0.73;;;;;;;;;;5048844;28;20041;-59
2023/11/07 09:15:11;;;;;;;0.80;0.80;;;;;;;;;;5047195;28;20036;-59
2023/11/07 09:17:41;;;;;;;1.02;0.93;;;;;;;;;;5048797;28;20032;-59
2023/11/07 09:20:13;;;;;;;1.17;0.60;;;;;;;;;;5048425;28;20498;-59
2023/11/07 09:22:41;;;;;;;1.70;0.98;;;;;;;;;;5049012;28;20060;-59
2023/11/07 09:25:09;;;;;;;1.33;0.73;;;;;;;;;;5045284;28;20049;-59
2023/11/07 09:27:36;;;;;;;2.70;0.63;;;;;;;;;;5047912;28;20040;-59
2023/11/07 09:30:10;;;;;;;1.10;0.82;;;;;;;;;;5049318;28;20049;-59
2023/11/07 09:32:38;;;;;;;1.83;0.63;;;;;;;;;;5048651;28;20052;-60
2023/11/07 09:35:08;;;;;;;1.25;0.70;;;;;;;;;;5048985;28;20041;-59
2023/11/07 09:37:39;;;;;;;;;;;;;;;;;;5047994;28;20037;-59
2023/11/07 09:40:19;;;;;;;0.90;0.50;;;;;;;;;;5049816;28;19913;-59
2023/11/07 09:42:48;;;;;;;0.73;0.60;;;;;;;;;;5046861;28;20048;-59
2023/11/07 09:45:16;;;;;;;2.15;1.00;;;;;;;;;;5046304;28;20426;-59
2023/11/07 09:47:47;;;;;;;1.38;0.70;;;;;;;;;;5046172;28;20056;-59
2023/11/07 09:50:21;;;;;;;1.23;0.60;;;;;;;;;;5049632;28;20033;-59
2023/11/07 09:52:49;;;;;;;1.55;0.85;;;;;;;;;;5049211;28;20032;-60
2023/11/07 09:55:16;;;;;;;2.40;1.15;;;;;;;;;;5047070;28;20048;-59
2023/11/07 09:58:01;;;;;;;0.70;0.60;;;;;;;;;;5047733;28;20044;-59
2023/11/07 10:00:30;;;;;;;0.60;0.50;;;;;;;;;;5046188;28;20036;-59
2023/11/07 10:02:58;;;;;;;0.75;0.60;;;;;;;;;;5047944;28;20060;-59
2023/11/07 10:05:25;;;;;;;0.55;0.52;;;;;;;;;;5047994;28;20041;-59
2023/11/07 10:07:52;;;;;;;0.75;0.60;;;;;;;;;;5042334;28;20529;-59
2023/11/07 10:10:19;;;;;;;2.45;0.60;;;;;;;;;;5048160;28;20040;-59
2023/11/07 10:12:46;;;;;;;0.50;0.50;;;;;;;;;;5048498;28;20426;-59
2023/11/07 10:15:25;;;;;;;0.82;0.55;;;;;;;;;;5046602;28;20037;-59
2023/11/07 10:18:08;;;;;;;1.27;0.60;;;;;;;;;;5038976;28;20043;-59
2023/11/07 10:20:47;;;;;;;1.75;0.40;;;;;;;;;;5048004;28;20036;-59
2023/11/07 10:23:13;;;;;;;0.37;0.30;;;;;;;;;;5048208;28;20053;-59
2023/11/07 10:25:39;;;;;;;0.88;0.40;;;;;;;;;;5040397;28;20776;-59
2023/11/07 10:28:07;;;;;;;0.88;0.50;;;;;;;;;;5047603;28;20067;-59
2023/11/07 10:30:36;;;;;;;2.42;0.60;;;;;;;;;;5047643;28;20053;-59
2023/11/07 10:33:06;;;;;;;0.60;0.30;;;;;;;;;;5048718;28;20406;-59
2023/11/07 10:35:32;;;;;;;;;;;;;;;;;;5047686;28;20290;-59
2023/11/07 10:37:58;;;;;;;1.23;0.80;;;;;;;;;;5047949;28;19916;-59
2023/11/07 10:40:26;;;;;;;0.77;0.52;;;;;;;;;;5047691;28;20033;-59
2023/11/07 10:42:52;;;;;;;0.75;0.60;;;;;;;;;;5046996;28;20040;-59
2023/11/07 10:45:21;;;;;;;1.10;0.60;;;;;;;;;;5047125;28;20055;-59
2023/11/07 10:47:48;;;;;;;2.55;0.60;;;;;;;;;;5047383;28;20037;-57
2023/11/07 10:50:17;;;;;;;1.58;0.60;;;;;;;;;;5048426;28;20037;-58
2023/11/07 10:52:47;;;;;;;1.85;0.50;;;;;;;;;;5047647;28;20036;-58
2023/11/07 10:55:14;;;;;;;2.25;0.50;;;;;;;;;;5046297;28;20501;-57
2023/11/07 10:57:46;;;;;;;0.60;0.60;;;;;;;;;;5046313;28;20037;-57
2023/11/07 11:00:16;;;;;;;1.27;0.70;;;;;;;;;;5043048;28;20609;-59
2023/11/07 11:02:52;;;;;;;1.40;0.50;;;;;;;;;;5047161;28;20045;-58
2023/11/07 11:05:19;;;;;;;1.27;0.70;;;;;;;;;;5043943;28;20061;-59
2023/11/07 11:07:51;;;;;;;0.63;0.32;;;;;;;;;;5046031;28;20057;-59
2023/11/07 11:10:23;;;;;;;1.02;0.50;;;;;;;;;;5044011;28;20040;-59
2023/11/07 11:12:50;;;;;;;1.17;0.50;;;;;;;;;;5044727;28;20052;-59
2023/11/07 11:15:18;;;;;;;0.80;0.60;;;;;;;;;;5036130;28;20490;-58
2023/11/07 11:18:13;;;;;;;0.57;0.50;;;;;;;;;;5043267;28;20036;-58
2023/11/07 11:20:58;;;;;;;1.45;0.60;;;;;;;;;;5041899;28;20049;-59
2023/11/07 11:23:36;;;;;;;0.90;0.50;;;;;;;;;;5045987;28;20041;-59
2023/11/07 11:26:17;;;;;;;0.98;0.52;;;;;;;;;;5042646;28;20064;-59
2023/11/07 11:28:44;;;;;;;1.08;0.57;;;;;;;;;;5044707;28;20043;-59
2023/11/07 11:31:24;;;;;;;0.38;0.32;;;;;;;;;;5046690;28;20037;-59
2023/11/07 11:34:29;;;;;;;1.40;0.50;;;;;;;;;;5048056;28;20028;-58
2023/11/07 11:37:02;;;;;;;2.83;0.60;;;;;;;;;;5042064;28;20068;-60
2023/11/07 11:39:36;;;;;;;0.40;0.40;;;;;;;;;;5044058;28;20053;-58
2023/11/07 11:42:05;;;;;;;1.38;0.60;;;;;;;;;;5047198;28;20512;-58
2023/11/07 11:44:31;;;;;;;1.75;0.52;;;;;;;;;;5046184;28;20059;-58
2023/11/07 11:46:59;;;;;;;0.43;0.40;;;;;;;;;;5044892;28;20053;-57
2023/11/07 11:49:25;;;;;;;1.35;0.60;;;;;;;;;;5044454;28;20049;-59
2023/11/07 11:51:53;;;;;;;0.68;0.50;;;;;;;;;;5044601;28;20048;-59
2023/11/07 11:54:32;;;;;;;0.40;0.40;;;;;;;;;;5047488;28;20048;-59
2023/11/07 11:56:58;;;;;;;0.75;0.50;;;;;;;;;;5045412;28;20049;-58
2023/11/07 11:59:30;;;;;;;0.77;0.50;;;;;;;;;;5046374;28;20052;-60
2023/11/07 12:02:03;;;;;;;1.65;0.40;;;;;;;;;;5041169;28;20029;-59
2023/11/07 12:04:36;;;;;;;0.20;0.20;;;;;;;;;;5046544;28;20060;-58
2023/11/07 12:07:12;;;;;;;0.40;0.40;;;;;;;;;;5041447;28;20052;-58
2023/11/07 12:09:52;;;;;;;0.68;0.40;;;;;;;;;;5045138;28;20037;-59
2023/11/07 12:12:19;;;;;;;0.68;0.68;;;;;;;;;;5047396;28;20049;-59
2023/11/07 12:14:50;;;;;;;0.55;0.30;;;;;;;;;;5046144;28;21737;-58
2023/11/07 12:17:17;;;;;;;0.30;0.20;;;;;;;;;;5047541;28;20040;-58
2023/11/07 12:19:46;;;;;;;0.60;0.40;;;;;;;;;;5046138;28;20041;-58
2023/11/07 12:22:14;;;;;;;0.40;0.40;;;;;;;;;;5040674;28;20045;-58
2023/11/07 12:24:40;;;;;;;1.02;0.80;;;;;;;;;;5046288;28;20036;-58
2023/11/07 12:27:06;;;;;;;1.80;0.50;;;;;;;;;;5046933;28;20061;-57
2023/11/07 12:29:33;;;;;;;0.50;0.50;;;;;;;;;;5045599;28;20052;-59
2023/11/07 12:32:00;;;;;;;0.80;0.50;;;;;;;;;;5047132;28;20049;-59
2023/11/07 12:34:30;;;;;;;1.20;0.40;;;;;;;;;;5046670;28;20048;-58
2023/11/07 12:37:12;;;;;;;0.50;0.40;;;;;;;;;;5046361;28;20059;-58
2023/11/07 12:39:43;;;;;;;0.45;0.40;;;;;;;;;;5046140;28;20045;-58
2023/11/07 12:42:09;;;;;;;0.70;0.50;;;;;;;;;;5050597;28;20053;-59
2023/11/07 12:44:36;;;;;;;0.65;0.30;;;;;;;;;;5049290;28;20057;-58
2023/11/07 12:47:06;;;;;;;0.40;0.40;;;;;;;;;;5048525;28;20505;-58
2023/11/07 12:49:39;;;;;;;0.35;0.35;;;;;;;;;;5049494;28;20047;-59
2023/11/07 12:52:10;;;;;;;0.40;0.40;;;;;;;;;;5050287;28;20049;-58
2023/11/07 12:54:37;;;;;;;0.50;0.30;;;;;;;;;;5049308;28;20041;-59
2023/11/07 12:57:06;;;;;;;0.55;0.35;;;;;;;;;;5044394;28;20043;-59
2023/11/07 12:59:32;;;;;;;0.63;0.40;;;;;;;;;;5048766;28;20525;-59
2023/11/07 13:02:00;;;;;;;0.75;0.52;;;;;;;;;;5050471;28;20052;-59
2023/11/07 13:04:27;;;;;;;2.05;0.65;;;;;;;;;;5042864;28;20058;-59
2023/11/07 13:06:58;;;;;;;0.30;0.30;;;;;;;;;;5041326;28;20049;-59
2023/11/07 13:09:28;;;;;;;0.90;0.30;;;;;;;;;;5048863;28;20383;-59
2023/11/07 13:12:10;;;;;;;1.77;0.50;;;;;;;;;;5045196;28;20029;-59
2023/11/07 13:14:40;;;;;;;1.08;0.40;;;;;;;;;;5041917;28;20414;-58
2023/11/07 13:17:07;;;;;;;0.82;0.45;;;;;;;;;;5045618;28;20407;-58
2023/11/07 13:19:38;;;;;;;0.85;0.40;;;;;;;;;;5045950;28;20045;-59
2023/11/07 13:22:04;;;;;;;0.68;0.60;;;;;;;;;;5042829;28;20059;-59
2023/11/07 13:24:30;;;;;;;1.25;0.90;;;;;;;;;;5040719;28;20057;-58
2023/11/07 13:26:57;;;;;;;1.73;0.60;;;;;;;;;;5039162;28;20045;-58
2023/11/07 13:29:23;;;;;;;0.73;0.40;;;;;;;;;;5043423;28;20052;-59
2023/11/07 13:31:50;;;;;;;0.98;0.60;;;;;;;;;;5040421;28;20509;-58
2023/11/07 13:34:16;;;;;;;1.48;1.00;;;;;;;;;;5046824;28;20422;-58
2023/11/07 13:36:45;;;;;;;1.63;0.70;;;;;;;;;;5048241;28;20053;-58
2023/11/07 13:39:23;;;;;;;0.77;0.40;;;;;;;;;;5039573;28;20033;-59
2023/11/07 13:41:50;;;;;;;1.90;0.55;;;;;;;;;;5045777;28;20052;-58
2023/11/07 13:44:16;;;;;;;1.85;0.73;;;;;;;;;;5048826;28;20032;-58
2023/11/07 13:46:42;;;;;;;1.02;0.90;;;;;;;;;;5039719;28;20049;-59
2023/11/07 13:49:11;;;;;;;1.23;1.00;;;;;;;;;;5042449;28;20041;-58
2023/11/07 13:51:41;;;;;;;0.60;0.52;;;;;;;;;;5039039;28;20063;-58
2023/11/07 13:54:11;;;;;;;2.72;1.20;;;;;;;;;;5047443;28;20048;-57
2023/11/07 13:56:37;;;;;;;3.15;2.05;;;;;;;;;;5040353;28;20033;-59
2023/11/07 13:59:04;;;;;;;2.85;1.67;;;;;;;;;;5044139;28;20036;-58
2023/11/07 14:01:31;;;;;;;8.00;5.68;;;;;;;;;;5041615;28;20146;-58
2023/11/07 14:03:57;;;;;;;7.57;4.32;;;;;;;;;;5042499;28;20529;-58
2023/11/07 14:06:24;;;;;;;8.88;4.43;;;;;;;;;;5042966;28;20040;-58
2023/11/07 14:08:50;;;;;;;4.22;2.40;;;;;;;;;;5041093;28;20036;-58
2023/11/07 14:11:16;;;;;;;2.65;2.20;;;;;;;;;;5049106;28;20049;-58
2023/11/07 14:13:50;;;;;;;15.57;5.93;;;;;;;;;;5046162;28;20029;-58
2023/11/07 14:16:16;;;;;;;1.40;1.25;;;;;;;;;;5044883;28;20394;-58
2023/11/07 14:18:43;;;;;;;1.70;1.02;;;;;;;;;;5047601;28;20510;-58
2023/11/07 14:21:12;;;;;;;1.30;0.90;;;;;;;;;;5047702;28;20040;-58
2023/11/07 14:23:40;;;;;;;0.95;0.82;;;;;;;;;;5042140;28;20036;-58
2023/11/07 14:26:09;;;;;;;1.77;1.35;;;;;;;;;;5046061;28;20525;-58
2023/11/07 14:28:37;;;;;;;1.40;0.90;;;;;;;;;;5044894;28;20045;-58
2023/11/07 14:31:07;;;;;;;2.38;0.70;;;;;;;;;;5046905;28;20645;-59
2023/11/07 14:33:33;;;;;;;1.52;1.10;;;;;;;;;;5041964;28;20500;-58
2023/11/07 14:35:59;;;;;;;1.75;0.80;;;;;;;;;;5044556;28;20033;-59
2023/11/07 14:38:28;;;;;;;1.48;1.10;;;;;;;;;;5036987;28;20056;-58
2023/11/07 14:40:55;;;;;;;2.55;1.60;;;;;;;;;;5040410;28;20049;-58
2023/11/07 14:43:21;;;;;;;2.78;1.50;;;;;;;;;;5039908;28;20442;-58
2023/11/07 14:45:48;;;;;;;1.63;1.17;;;;;;;;;;5041920;28;20422;-58
2023/11/07 14:48:15;;;;;;;1.75;0.90;;;;;;;;;;5044875;28;20045;-61